Time;durP1;ratioP1;P1;durP2;ratioP2;P2;SDS_P1;SDS_P2;PMS_P1;PMS_P2;Temp;Humidity;BMP_temperature;BMP_pressure;BME280_temperature;BME280_humidity;BME280_pressure;Samples;Min_cycle;Max_cycle;Signal;HPM_P1;HPM_P2
2021/12/20 00:01:05;;;;;;;8.38;2.38;;;;;;;5.78;100.00;102738.28;4933739;28;20073;-73
2021/12/20 00:03:30;;;;;;;10.23;2.20;;;;;;;5.86;100.00;102741.63;4952614;28;20648;-73
2021/12/20 00:05:55;;;;;;;7.00;1.92;;;;;;;5.84;100.00;102724.78;4954887;28;20065;-73
2021/12/20 00:08:21;;;;;;;11.38;2.15;;;;;;;5.83;100.00;102753.22;4953206;28;20027;-73
2021/12/20 00:10:46;;;;;;;10.65;2.33;;;;;;;5.89;100.00;102749.53;4953278;28;20027;-72
2021/12/20 00:13:11;;;;;;;13.00;2.25;;;;;;;5.83;100.00;102739.03;4959383;28;20034;-73
2021/12/20 00:15:37;;;;;;;10.93;2.22;;;;;;;5.80;100.00;102741.78;4953444;28;20448;-73
2021/12/20 00:18:02;;;;;;;14.40;2.35;;;;;;;5.92;100.00;102743.22;4956835;28;20647;-73
2021/12/20 00:20:28;;;;;;;12.10;2.28;;;;;;;5.91;100.00;102739.69;4956933;28;20483;-73
2021/12/20 00:22:53;;;;;;;5.70;1.95;;;;;;;6.00;100.00;102741.28;4957275;28;20522;-73
2021/12/20 00:25:18;;;;;;;8.00;2.17;;;;;;;5.83;100.00;102728.38;4937299;28;20070;-73
2021/12/20 00:27:44;;;;;;;10.48;2.53;;;;;;;5.70;100.00;102731.34;4959047;28;20048;-73
2021/12/20 00:30:10;;;;;;;5.78;2.20;;;;;;;5.70;100.00;102738.50;4954587;28;20183;-73
2021/12/20 00:32:35;;;;;;;8.43;2.65;;;;;;;5.77;100.00;102723.19;4953275;28;20388;-73
2021/12/20 00:35:02;;;;;;;9.43;2.25;;;;;;;5.68;100.00;102727.00;4956305;28;20344;-73
2021/12/20 00:40:30;;;;;;;16.50;2.13;;;;;;;5.48;100.00;102723.06;4913286;29;20099;-73
2021/12/20 00:43:01;;;;;;;10.15;1.88;;;;;;;5.48;100.00;102728.41;4917365;29;20032;-73
2021/12/20 00:45:32;;;;;;;12.73;2.38;;;;;;;5.54;100.00;102727.34;4933657;28;20045;-73
2021/12/20 00:47:58;;;;;;;11.38;2.05;;;;;;;5.53;100.00;102730.94;4957800;28;20052;-73
2021/12/20 00:50:24;;;;;;;7.35;1.88;;;;;;;5.59;100.00;102733.44;4955874;28;20034;-73
2021/12/20 00:52:50;;;;;;;11.88;2.83;;;;;;;5.65;100.00;102740.41;4955897;28;20042;-73
2021/12/20 00:55:17;;;;;;;9.95;2.58;;;;;;;5.64;100.00;102741.31;4935963;28;20035;-73
2021/12/20 00:57:43;;;;;;;11.25;2.42;;;;;;;5.50;100.00;102731.00;4955681;28;20079;-73
2021/12/20 01:00:09;;;;;;;8.38;2.47;;;;;;;5.65;100.00;102740.41;4939711;28;20047;-73
2021/12/20 01:02:35;;;;;;;7.20;2.30;;;;;;;5.78;100.00;102741.84;4957467;28;20115;-72
2021/12/20 01:05:00;;;;;;;9.20;2.20;;;;;;;5.72;100.00;102736.66;4953669;28;20031;-73
2021/12/20 01:07:26;;;;;;;10.80;2.03;;;;;;;5.67;100.00;102726.13;4935951;28;20050;-72
2021/12/20 01:09:53;;;;;;;10.43;2.65;;;;;;;5.70;100.00;102733.16;4953751;28;20315;-72
2021/12/20 01:12:20;;;;;;;10.95;1.88;;;;;;;5.72;100.00;102734.00;4955181;28;20142;-73
2021/12/20 01:14:46;;;;;;;10.40;2.28;;;;;;;5.77;100.00;102726.75;4957780;28;20026;-72
2021/12/20 01:17:12;;;;;;;10.85;2.58;;;;;;;5.90;100.00;102732.63;4953695;28;20031;-72
2021/12/20 01:19:38;;;;;;;8.32;2.17;;;;;;;5.72;100.00;102723.34;4957035;28;20034;-73
2021/12/20 01:22:05;;;;;;;12.40;2.15;;;;;;;5.75;100.00;102730.34;4958624;28;20046;-73
2021/12/20 01:24:30;;;;;;;6.05;2.00;;;;;;;5.69;100.00;102723.41;4945243;28;20041;-73
2021/12/20 01:26:56;;;;;;;10.73;2.15;;;;;;;5.62;100.00;102728.03;4957819;28;20038;-73
2021/12/20 01:29:22;;;;;;;13.90;2.42;;;;;;;5.49;100.00;102714.16;4954453;28;20037;-73
2021/12/20 01:31:47;;;;;;;9.45;2.15;;;;;;;5.52;100.00;102737.19;4961785;28;20051;-73
2021/12/20 01:34:12;;;;;;;15.40;2.35;;;;;;;5.50;100.00;102731.00;4960279;28;20157;-73
2021/12/20 01:36:38;;;;;;;11.00;2.33;;;;;;;5.73;100.00;102732.19;4958340;28;20139;-72
2021/12/20 01:39:03;;;;;;;15.75;2.50;;;;;;;5.40;100.00;102725.06;4958964;28;20033;-73
2021/12/20 01:41:29;;;;;;;14.32;2.65;;;;;;;5.43;100.00;102735.63;4958755;28;20050;-73
2021/12/20 01:43:54;;;;;;;12.45;2.33;;;;;;;5.41;100.00;102726.81;4941816;28;20126;-73
2021/12/20 01:46:20;;;;;;;9.15;1.83;;;;;;;5.49;100.00;102740.81;4954679;28;20110;-73
2021/12/20 01:48:47;;;;;;;10.98;2.03;;;;;;;5.37;100.00;102736.66;4939938;28;20109;-73
2021/12/20 01:51:31;;;;;;;13.50;2.72;;;;;;;5.36;99.99;102723.38;4963384;28;20332;-73
2021/12/20 01:53:58;;;;;;;13.50;2.75;;;;;;;5.39;99.04;102737.50;4958175;28;20178;-73
2021/12/20 01:56:24;;;;;;;15.75;3.00;;;;;;;5.34;97.59;102726.09;4939126;28;20563;-73
2021/12/20 01:58:49;;;;;;;15.68;2.22;;;;;;;5.30;98.34;102712.91;4960083;28;20037;-72
2021/12/20 02:03:44;;;;;;;14.55;1.90;;;;;;;5.51;99.29;102714.13;4957160;28;20039;-73
2021/12/20 02:06:19;;;;;;;16.52;2.83;;;;;;;5.37;98.07;102725.13;4955300;28;20479;-73
2021/12/20 02:08:44;;;;;;;17.52;2.38;;;;;;;5.34;98.72;102717.22;4957194;28;20466;-73
2021/12/20 02:11:10;;;;;;;10.57;1.98;;;;;;;5.34;99.13;102730.53;4959074;28;20033;-73
2021/12/20 02:13:37;;;;;;;19.25;2.85;;;;;;;5.36;99.84;102731.38;4956833;28;20029;-73
2021/12/20 02:16:03;;;;;;;8.73;1.98;;;;;;;5.41;99.87;102726.81;4938927;28;20037;-73
2021/12/20 02:18:29;;;;;;;9.40;1.77;;;;;;;5.41;99.75;102729.47;4940804;28;20285;-73
2021/12/20 02:20:55;;;;;;;8.90;2.20;;;;;;;5.42;99.97;102728.56;4962882;28;20688;-73
2021/12/20 02:23:20;;;;;;;10.90;1.90;;;;;;;5.42;99.82;102715.22;4941278;28;20031;-73
2021/12/20 02:25:46;;;;;;;14.55;2.45;;;;;;;5.46;100.00;102716.91;4959409;28;20093;-73
2021/12/20 02:28:14;;;;;;;17.60;3.83;;;;;;;5.40;99.64;102719.72;4957164;28;20395;-73
2021/12/20 02:36:51;;;;;;;13.40;1.98;;;;;;;5.43;100.00;102721.44;4964219;28;20030;-73
2021/12/20 02:38:49;;;;;;;11.43;2.15;;;;;;;5.27;99.39;102718.31;4955774;28;20035;-73
2021/12/20 02:41:20;;;;;;;9.65;2.03;;;;;;;5.30;99.69;102703.09;4956396;28;20483;-73
2021/12/20 02:43:54;;;;;;;14.13;2.92;;;;;;;5.42;99.47;102703.72;4943677;28;20038;-73
2021/12/20 02:49:07;;;;;;;15.38;2.67;;;;;;;5.35;99.51;102708.31;4954126;28;20408;-73
2021/12/20 02:51:33;;;;;;;15.13;2.90;;;;;;;5.41;99.85;102718.81;4958943;28;20085;-73
2021/12/20 02:54:03;;;;;;;10.90;2.70;;;;;;;5.35;99.02;102702.97;4955977;28;20031;-73
2021/12/20 02:56:28;;;;;;;10.52;2.13;;;;;;;5.24;98.92;102677.50;4957322;28;20027;-72
2021/12/20 02:58:54;;;;;;;15.18;3.45;;;;;;;5.15;99.02;102690.19;4940852;28;20037;-73
2021/12/20 03:01:21;;;;;;;17.25;2.85;;;;;;;5.21;99.26;102712.22;4958276;28;20026;-73
2021/12/20 03:03:48;;;;;;;12.35;2.03;;;;;;;5.24;100.00;102709.47;4955898;28;20069;-73
2021/12/20 03:06:24;;;;;;;10.93;2.28;;;;;;;5.29;99.82;102709.34;4940424;28;20052;-73
2021/12/20 03:08:51;;;;;;;14.93;2.60;;;;;;;5.27;100.00;102710.31;4938442;28;20589;-73
2021/12/20 03:11:18;;;;;;;22.52;2.35;;;;;;;5.32;99.56;102701.28;4957287;28;20435;-73
2021/12/20 03:13:46;;;;;;;18.60;3.50;;;;;;;5.24;98.50;102693.50;4956009;28;20030;-73
2021/12/20 03:16:12;;;;;;;18.40;3.35;;;;;;;5.33;99.19;102702.13;4940276;28;20026;-73
2021/12/20 03:18:37;;;;;;;16.40;2.30;;;;;;;5.35;98.59;102706.53;4941961;28;20358;-73
2021/12/20 03:21:02;;;;;;;15.65;2.28;;;;;;;5.31;98.67;102704.84;4954439;28;20061;-73
2021/12/20 03:23:28;;;;;;;16.25;2.40;;;;;;;5.20;98.62;102717.56;4933908;28;20049;-73
2021/12/20 03:25:53;;;;;;;10.15;2.72;;;;;;;5.18;99.10;102709.63;4957081;28;20034;-73
2021/12/20 03:28:18;;;;;;;10.43;2.03;;;;;;;5.28;99.28;102709.41;4940786;28;20050;-73
2021/12/20 03:30:44;;;;;;;16.85;2.15;;;;;;;5.20;99.47;102693.59;4942992;28;20054;-73
2021/12/20 03:33:10;;;;;;;10.80;2.38;;;;;;;5.36;99.47;102710.94;4942411;28;20797;-73
2021/12/20 03:35:35;;;;;;;14.98;2.20;;;;;;;5.19;98.49;102713.16;4957280;28;20074;-73
2021/12/20 03:38:00;;;;;;;18.58;3.47;;;;;;;5.23;98.87;102726.38;4956782;28;20475;-73
2021/12/20 03:40:26;;;;;;;7.57;1.67;;;;;;;5.22;98.74;102727.28;4953760;28;20034;-73
2021/12/20 03:42:51;;;;;;;15.23;2.60;;;;;;;5.20;99.11;102723.78;4956452;28;20026;-73
2021/12/20 03:45:17;;;;;;;19.38;2.95;;;;;;;5.14;99.79;102699.09;4940821;28;20038;-72
2021/12/20 03:47:43;;;;;;;12.60;2.50;;;;;;;5.16;99.45;102692.81;4942863;28;20134;-73
2021/12/20 03:50:09;;;;;;;16.38;2.58;;;;;;;5.35;98.34;102698.53;4941528;28;20026;-72
2021/12/20 03:52:38;;;;;;;17.00;2.78;;;;;;;5.24;97.40;102705.91;4958652;28;20303;-73
2021/12/20 03:55:05;;;;;;;12.20;2.40;;;;;;;5.22;98.18;102697.97;4936353;28;20109;-73
2021/12/20 03:57:30;;;;;;;13.52;3.22;;;;;;;5.21;98.54;102696.22;4955076;28;20495;-73
2021/12/20 03:59:56;;;;;;;16.80;2.47;;;;;;;5.11;98.51;102713.34;4960806;28;20148;-73
2021/12/20 04:02:22;;;;;;;20.23;2.72;;;;;;;5.10;98.60;102696.50;4954074;28;20027;-73
2021/12/20 04:04:47;;;;;;;21.48;2.50;;;;;;;5.11;98.83;102705.34;4956642;28;20045;-73
2021/12/20 04:07:13;;;;;;;11.48;2.42;;;;;;;5.13;98.75;102703.53;4933232;28;20429;-73
2021/12/20 04:09:38;;;;;;;21.80;2.60;;;;;;;5.07;98.56;102695.69;4956791;28;20464;-73
2021/12/20 04:12:03;;;;;;;13.60;2.10;;;;;;;5.15;98.94;102703.50;4957475;28;20057;-73
2021/12/20 04:14:29;;;;;;;8.43;1.90;;;;;;;5.14;99.19;102707.94;4959258;28;20088;-73
2021/12/20 04:16:54;;;;;;;11.95;2.60;;;;;;;5.13;99.23;102692.88;4956424;28;20034;-73
2021/12/20 04:19:19;;;;;;;11.10;2.20;;;;;;;5.10;98.15;102695.63;4950955;28;20098;-73
2021/12/20 04:21:45;;;;;;;13.65;2.03;;;;;;;5.14;98.86;102702.63;4937244;28;20092;-73
2021/12/20 04:24:10;;;;;;;12.63;2.60;;;;;;;5.13;98.51;102706.19;4953712;28;20487;-73
2021/12/20 04:26:35;;;;;;;16.05;3.25;;;;;;;5.04;98.04;102687.78;4937644;28;20027;-73
2021/12/20 04:29:01;;;;;;;24.27;3.25;;;;;;;5.03;97.48;102696.69;4939567;28;20081;-73
2021/12/20 04:31:28;;;;;;;17.38;2.72;;;;;;;5.08;98.46;102703.66;4938464;28;20031;-73
2021/12/20 04:33:53;;;;;;;17.98;2.72;;;;;;;5.08;98.07;102708.97;4955264;28;20038;-73
2021/12/20 04:36:18;;;;;;;11.88;2.65;;;;;;;5.07;98.34;102704.56;4953422;28;20425;-73
2021/12/20 04:38:44;;;;;;;10.88;2.67;;;;;;;5.08;99.22;102701.00;4932550;28;20034;-73
2021/12/20 04:41:09;;;;;;;19.65;2.47;;;;;;;5.06;99.41;102704.59;4954207;28;20037;-73
2021/12/20 04:43:34;;;;;;;9.75;2.10;;;;;;;5.06;98.79;102694.84;4938587;28;20034;-73
2021/12/20 04:46:00;;;;;;;17.98;2.92;;;;;;;4.98;98.67;102707.44;4938239;28;20034;-73
2021/12/20 04:48:25;;;;;;;16.52;2.88;;;;;;;5.06;98.54;102713.47;4972319;23;20054;-73
2021/12/20 04:50:50;;;;;;;15.02;2.20;;;;;;;4.97;98.36;102702.16;4960808;28;20386;-73
2021/12/20 04:53:16;;;;;;;9.18;1.80;;;;;;;5.07;98.01;102720.53;4958372;28;20030;-73
2021/12/20 04:55:41;;;;;;;12.48;2.92;;;;;;;5.00;97.57;102699.44;4960370;28;20030;-73
2021/12/20 04:58:08;;;;;;;21.27;2.50;;;;;;;4.99;97.21;102713.66;4956052;28;20023;-73
2021/12/20 05:00:35;;;;;;;13.73;3.03;;;;;;;4.93;96.31;102704.00;4960561;28;20073;-73
2021/12/20 05:03:00;;;;;;;14.68;2.58;;;;;;;5.01;96.61;102711.84;4964760;28;20035;-73
2021/12/20 05:05:28;;;;;;;13.82;2.80;;;;;;;5.09;95.60;102726.72;4956747;28;20062;-73
2021/12/20 05:07:54;;;;;;;16.08;3.05;;;;;;;5.01;95.88;102710.03;4960940;28;20117;-73
2021/12/20 05:10:53;;;;;;;16.05;2.47;;;;;;;5.16;96.29;102722.09;4978444;28;20031;-73
2021/12/20 05:13:12;;;;;;;11.85;2.20;;;;;;;5.10;95.51;102731.13;4976749;28;20162;-73
2021/12/20 05:15:39;;;;;;;14.98;3.05;;;;;;;5.11;94.69;102726.66;4977127;28;20060;-73
2021/12/20 05:18:07;;;;;;;14.88;2.15;;;;;;;5.11;94.76;102726.66;4965239;28;20494;-72
2021/12/20 05:20:32;;;;;;;19.40;2.45;;;;;;;5.07;93.43;102731.19;4981060;28;20039;-73
2021/12/20 05:22:58;;;;;;;9.45;1.75;;;;;;;5.15;94.19;102730.13;4981323;28;20033;-73
2021/12/20 05:25:24;;;;;;;10.07;2.50;;;;;;;5.18;94.10;102735.38;4964406;28;20045;-72
2021/12/20 05:27:49;;;;;;;12.00;2.25;;;;;;;4.92;93.43;102699.59;4966968;28;20018;-73
2021/12/20 05:30:15;;;;;;;14.27;2.47;;;;;;;5.07;92.89;102739.19;4978766;28;20022;-73
2021/12/20 05:32:42;;;;;;;18.75;3.05;;;;;;;5.11;94.35;102739.97;4963213;28;20876;-73
2021/12/20 05:35:08;;;;;;;27.63;3.17;;;;;;;5.06;93.99;102736.53;4981082;28;20422;-73
2021/12/20 05:37:34;;;;;;;11.10;2.03;;;;;;;5.07;94.84;102724.97;4958778;28;20034;-73
2021/12/20 05:39:59;;;;;;;14.68;2.25;;;;;;;5.05;94.29;102725.03;4964059;28;20049;-73
2021/12/20 05:42:25;;;;;;;16.52;1.95;;;;;;;5.09;94.32;102732.03;4985604;28;20168;-73
2021/12/20 05:44:51;;;;;;;15.30;2.58;;;;;;;5.01;94.53;102723.34;4981705;28;20033;-73
2021/12/20 05:47:18;;;;;;;17.17;3.45;;;;;;;5.11;95.09;102731.97;4958597;28;20019;-73
2021/12/20 05:49:43;;;;;;;12.43;2.38;;;;;;;5.05;94.72;102733.00;4964635;28;20041;-73
2021/12/20 05:52:09;;;;;;;14.93;3.38;;;;;;;5.07;94.09;102727.63;4985061;28;20030;-73
2021/12/20 05:54:34;;;;;;;23.90;3.83;;;;;;;5.01;94.28;102728.66;4961650;28;20034;-73
2021/12/20 05:56:59;;;;;;;14.23;2.45;;;;;;;5.05;94.46;102732.13;4974944;28;20078;-73
2021/12/20 05:59:25;;;;;;;11.15;3.03;;;;;;;5.03;94.59;102729.50;4981020;28;20042;-73
2021/12/20 06:01:50;;;;;;;10.15;1.90;;;;;;;4.86;94.70;102703.28;4974921;28;20052;-73
2021/12/20 06:04:15;;;;;;;11.30;2.25;;;;;;;5.02;94.56;102721.56;4963443;28;20078;-73
2021/12/20 06:06:41;;;;;;;23.05;3.78;;;;;;;4.94;93.36;102709.31;4961524;28;20022;-73
2021/12/20 06:09:06;;;;;;;16.00;2.47;;;;;;;5.00;93.74;102724.25;4979074;28;20022;-72
2021/12/20 06:11:31;;;;;;;14.25;2.42;;;;;;;4.87;92.50;102713.03;4949574;28;20053;-73
2021/12/20 06:13:58;;;;;;;12.15;2.40;;;;;;;4.80;92.27;102706.97;4945482;28;20117;-73
2021/12/20 06:16:24;;;;;;;11.75;2.80;;;;;;;4.91;91.59;102725.34;4961072;28;20029;-73
2021/12/20 06:18:51;;;;;;;11.50;2.38;;;;;;;4.83;90.80;102724.66;4944533;28;20027;-73
2021/12/20 06:21:18;;;;;;;16.65;3.70;;;;;;;4.90;91.60;102736.06;4964965;28;20100;-72
2021/12/20 06:23:43;;;;;;;10.93;2.20;;;;;;;4.88;91.33;102716.59;4963505;28;20109;-72
2021/12/20 06:26:08;;;;;;;6.40;1.70;;;;;;;4.86;89.44;102713.94;4960813;28;20149;-73
2021/12/20 06:28:34;;;;;;;13.52;1.88;;;;;;;4.93;89.30;102733.28;4956969;28;20035;-72
2021/12/20 06:30:59;;;;;;;12.65;2.47;;;;;;;4.99;90.41;102735.81;4964492;28;20126;-73
2021/12/20 06:33:24;;;;;;;12.70;2.20;;;;;;;4.95;89.29;102729.69;4948439;28;20057;-73
2021/12/20 06:35:51;;;;;;;14.05;2.40;;;;;;;4.97;89.24;102734.13;4961346;28;20036;-73
2021/12/20 06:38:19;;;;;;;15.63;2.40;;;;;;;4.97;90.05;102731.47;4976703;28;20145;-73
2021/12/20 06:40:45;;;;;;;8.65;2.08;;;;;;;5.04;90.81;102730.38;4962983;28;20038;-73
2021/12/20 06:43:11;;;;;;;13.40;2.08;;;;;;;4.96;89.64;102743.88;4977656;28;20041;-73
2021/12/20 06:45:36;;;;;;;7.00;1.88;;;;;;;4.90;89.09;102744.03;4960377;28;20112;-73
2021/12/20 06:48:02;;;;;;;14.20;2.22;;;;;;;4.90;87.75;102750.22;4955616;28;20142;-73
2021/12/20 06:50:27;;;;;;;14.52;2.47;;;;;;;4.94;89.56;102754.56;4959358;28;20043;-73
2021/12/20 06:52:52;;;;;;;15.63;2.33;;;;;;;4.92;91.41;102756.38;4959712;28;20058;-73
2021/12/20 06:55:18;;;;;;;12.63;2.08;;;;;;;4.82;91.61;102753.97;4978866;28;20651;-73
2021/12/20 06:57:44;;;;;;;7.40;1.95;;;;;;;4.92;90.77;102758.16;4978007;28;20314;-74
2021/12/20 07:00:09;;;;;;;11.60;1.58;;;;;;;4.90;91.78;102755.53;4960360;28;20041;-73
2021/12/20 07:02:35;;;;;;;6.93;1.77;;;;;;;4.79;90.06;102745.16;4977497;28;20038;-73
2021/12/20 07:05:00;;;;;;;8.82;1.90;;;;;;;4.85;90.10;102756.56;4975375;28;21699;-73
2021/12/20 07:07:25;;;;;;;20.50;2.25;;;;;;;4.90;89.88;102762.69;4981094;28;20019;-73
2021/12/20 07:09:51;;;;;;;14.15;1.80;;;;;;;4.91;90.45;102765.28;4975712;28;20018;-73
2021/12/20 07:12:16;;;;;;;6.97;1.52;;;;;;;4.89;89.82;102766.25;4957855;28;20678;-73
2021/12/20 07:14:42;;;;;;;16.73;1.98;;;;;;;4.90;90.41;102762.69;4959402;28;20060;-73
2021/12/20 07:17:08;;;;;;;6.50;1.40;;;;;;;4.78;90.95;102758.47;4979772;28;20401;-73
2021/12/20 07:19:33;;;;;;;12.07;2.13;;;;;;;4.90;91.50;102778.66;4951529;28;20483;-73
2021/12/20 07:21:58;;;;;;;12.32;1.40;;;;;;;4.89;90.98;102779.56;4955369;28;20029;-73
2021/12/20 07:24:24;;;;;;;7.03;1.85;;;;;;;4.73;91.98;102752.41;4971708;28;20078;-73
2021/12/20 07:26:49;;;;;;;15.68;2.13;;;;;;;4.87;92.13;102770.72;4963104;28;20063;-73
2021/12/20 07:29:17;;;;;;;10.68;1.90;;;;;;;4.88;92.19;102775.13;4957871;28;20161;-73
2021/12/20 07:31:43;;;;;;;10.90;1.73;;;;;;;4.69;92.42;102754.25;4957317;28;20422;-73
2021/12/20 07:34:10;;;;;;;8.98;1.70;;;;;;;4.75;92.66;102770.06;4961335;28;20041;-73
2021/12/20 07:36:35;;;;;;;12.45;2.00;;;;;;;4.63;93.48;102749.94;4979325;28;20483;-73
2021/12/20 07:39:01;;;;;;;9.43;1.80;;;;;;;4.64;94.02;102757.00;4956439;28;20049;-73
2021/12/20 07:41:26;;;;;;;12.90;2.53;;;;;;;4.71;93.29;102765.72;4973503;28;20225;-73
2021/12/20 07:43:51;;;;;;;9.95;2.08;;;;;;;4.73;93.48;102761.25;4940802;28;20244;-73
2021/12/20 07:46:17;;;;;;;10.07;2.30;;;;;;;4.75;92.72;102780.72;4951401;28;20153;-73
2021/12/20 07:48:43;;;;;;;8.70;1.65;;;;;;;4.68;92.55;102759.63;4955303;28;20332;-73
2021/12/20 07:51:08;;;;;;;15.75;3.00;;;;;;;4.71;92.60;102762.22;4947301;28;20062;-73
2021/12/20 07:53:33;;;;;;;8.98;2.33;;;;;;;4.78;93.05;102775.34;4940285;28;20070;-73
2021/12/20 07:55:59;;;;;;;12.82;2.30;;;;;;;4.82;93.38;102773.47;4953120;28;22258;-74
2021/12/20 07:58:24;;;;;;;10.13;1.95;;;;;;;4.83;93.54;102775.22;4956806;28;20038;-73
2021/12/20 08:00:50;;;;;;;7.38;2.10;;;;;;;4.76;93.22;102763.00;4972266;28;20074;-73
2021/12/20 08:03:15;;;;;;;15.02;2.80;;;;;;;4.73;92.66;102769.22;4940242;28;20050;-73
2021/12/20 08:05:41;;;;;;;13.23;2.22;;;;;;;4.84;92.77;102781.44;4971343;28;20069;-73
2021/12/20 08:08:07;;;;;;;12.02;3.88;;;;;;;4.78;92.76;102771.78;4959210;28;20025;-73
2021/12/20 08:10:32;;;;;;;7.70;2.08;;;;;;;4.81;92.50;102777.03;4953274;28;20403;-74
2021/12/20 08:12:57;;;;;;;16.98;2.83;;;;;;;4.86;93.28;102779.63;4971532;28;20061;-74
2021/12/20 08:15:23;;;;;;;7.35;2.30;;;;;;;4.88;94.48;102785.78;4971115;28;20474;-73
2021/12/20 08:17:52;;;;;;;11.93;2.40;;;;;;;4.80;93.78;102772.63;4956748;28;20125;-74
2021/12/20 08:20:18;;;;;;;9.23;1.45;;;;;;;4.77;93.99;102775.34;4952607;28;20034;-74
2021/12/20 08:22:43;;;;;;;20.08;3.38;;;;;;;4.85;94.13;102789.38;4970477;28;20084;-74
2021/12/20 08:25:10;;;;;;;18.88;3.15;;;;;;;4.88;94.22;102791.97;4953658;28;20038;-74
2021/12/20 08:27:35;;;;;;;16.25;3.58;;;;;;;4.77;93.49;102778.00;4952626;28;20427;-74
2021/12/20 08:30:00;;;;;;;16.10;2.80;;;;;;;4.91;93.81;102794.56;4968199;28;20474;-73
2021/12/20 08:32:26;;;;;;;15.18;3.88;;;;;;;4.92;94.43;102795.44;4972370;28;20513;-73
2021/12/20 08:34:51;;;;;;;14.25;3.53;;;;;;;4.98;94.16;102797.97;4940221;28;20062;-73
2021/12/20 08:37:17;;;;;;;13.75;2.88;;;;;;;5.02;94.28;102799.66;4972133;28;21578;-73
2021/12/20 08:39:42;;;;;;;9.43;2.80;;;;;;;4.97;94.83;102798.00;4969357;28;20172;-73
2021/12/20 08:42:08;;;;;;;14.40;2.75;;;;;;;5.02;94.96;102804.09;4958217;28;20054;-74
2021/12/20 08:44:34;;;;;;;16.85;2.47;;;;;;;5.09;94.58;102803.03;4976080;28;20470;-74
2021/12/20 08:46:59;;;;;;;9.88;2.63;;;;;;;5.04;94.80;102803.16;4974579;28;20037;-73
2021/12/20 08:49:26;;;;;;;11.40;2.13;;;;;;;5.16;94.96;102809.97;4977233;28;20053;-73
2021/12/20 08:51:51;;;;;;;10.48;2.78;;;;;;;5.11;94.68;102803.88;4974932;28;20042;-73
2021/12/20 08:54:17;;;;;;;15.88;3.08;;;;;;;5.17;94.69;102789.53;4953121;28;20026;-74
2021/12/20 08:56:42;;;;;;;11.82;2.50;;;;;;;5.23;94.16;102803.59;4958142;28;20045;-73
2021/12/20 08:59:08;;;;;;;11.57;2.22;;;;;;;5.29;94.03;102802.56;4955966;28;20065;-74
2021/12/20 09:01:35;;;;;;;10.23;2.45;;;;;;;5.32;93.51;102806.94;4953931;28;20035;-73
2021/12/20 09:04:01;;;;;;;9.85;2.47;;;;;;;5.36;93.19;102792.63;4957939;28;20034;-73
2021/12/20 09:06:27;;;;;;;19.25;2.72;;;;;;;5.44;93.73;102800.44;4957476;28;20612;-73
2021/12/20 09:08:54;;;;;;;7.03;1.85;;;;;;;5.50;93.40;102813.59;4951279;28;20088;-73
2021/12/20 09:11:21;;;;;;;8.23;2.97;;;;;;;5.55;93.65;102817.94;4942770;28;20054;-73
2021/12/20 09:13:47;;;;;;;15.95;2.47;;;;;;;5.62;93.54;102809.75;4951738;28;20069;-74
2021/12/20 09:16:12;;;;;;;19.48;3.40;;;;;;;5.71;93.24;102812.19;4951190;28;20113;-74
2021/12/20 09:18:37;;;;;;;15.13;3.40;;;;;;;5.75;92.70;102813.88;4951293;28;20067;-73
2021/12/20 09:21:03;;;;;;;10.15;2.10;;;;;;;5.79;92.00;102814.66;4951916;28;20062;-74
2021/12/20 09:23:31;;;;;;;14.35;3.22;;;;;;;5.84;91.43;102821.63;4962552;28;20088;-74
2021/12/20 09:25:56;;;;;;;11.50;2.30;;;;;;;5.90;90.81;102809.03;4928273;28;20530;-74
2021/12/20 09:28:22;;;;;;;9.52;2.80;;;;;;;5.96;90.61;102812.41;4961390;28;20026;-74
2021/12/20 09:30:47;;;;;;;12.45;2.28;;;;;;;6.06;91.14;102817.53;4954995;28;20030;-74
2021/12/20 09:33:13;;;;;;;11.05;2.50;;;;;;;5.96;91.03;102799.09;4957080;28;20089;-73
2021/12/20 09:35:38;;;;;;;12.43;3.10;;;;;;;6.02;90.00;102811.44;4941712;28;20039;-73
2021/12/20 09:38:10;;;;;;;9.57;2.10;;;;;;;6.10;88.79;102812.06;4942033;28;20038;-74
2021/12/20 09:40:39;;;;;;;9.27;2.28;;;;;;;6.18;89.46;102819.91;4958641;28;20093;-73
2021/12/20 09:43:08;;;;;;;15.02;2.42;;;;;;;6.22;89.97;102813.56;4944947;28;20391;-74
2021/12/20 09:45:33;;;;;;;8.15;2.00;;;;;;;6.47;89.99;102823.53;4942019;28;20038;-73
2021/12/20 09:47:59;;;;;;;13.65;2.30;;;;;;;6.75;88.63;102828.94;4946289;28;20029;-74
2021/12/20 09:50:25;;;;;;;14.95;2.22;;;;;;;6.92;86.19;102808.84;4939906;28;20030;-73
2021/12/20 09:52:51;;;;;;;15.05;1.83;;;;;;;7.63;85.92;102821.72;4956263;28;20030;-73
2021/12/20 09:55:16;;;;;;;11.38;2.38;;;;;;;8.51;79.09;102817.78;4957347;28;20034;-74
2021/12/20 09:57:44;;;;;;;11.40;2.40;;;;;;;9.49;74.85;102832.75;4962380;28;20027;-73
2021/12/20 10:00:12;;;;;;;13.82;2.55;;;;;;;10.10;70.17;102817.63;4942113;28;20031;-74
2021/12/20 10:02:37;;;;;;;10.38;2.15;;;;;;;10.34;69.07;102810.31;4940236;28;20029;-73
2021/12/20 10:05:03;;;;;;;10.05;1.92;;;;;;;10.55;68.52;102838.03;4951504;28;20030;-73
2021/12/20 10:07:29;;;;;;;10.40;2.40;;;;;;;10.72;64.86;102815.75;4939459;28;20081;-74
2021/12/20 10:09:55;;;;;;;10.18;2.55;;;;;;;10.88;67.55;102831.16;4955539;28;20026;-73
2021/12/20 10:12:26;;;;;;;13.23;2.38;;;;;;;11.47;64.12;102836.38;4937533;28;20131;-73
2021/12/20 10:15:10;;;;;;;14.50;2.75;;;;;;;11.87;60.91;102834.34;4935603;28;20030;-74
2021/12/20 10:17:58;;;;;;;10.15;2.30;;;;;;;11.42;61.21;102835.75;4934924;28;20113;-74
2021/12/20 10:20:27;;;;;;;8.57;2.10;;;;;;;10.70;65.86;102832.88;4953921;28;20073;-74
2021/12/20 10:22:53;;;;;;;16.73;2.70;;;;;;;10.29;64.72;102829.31;4943517;28;20057;-74
2021/12/20 10:25:27;;;;;;;16.63;2.92;;;;;;;9.63;66.83;102838.41;4952996;28;20031;-74
2021/12/20 10:27:53;;;;;;;13.68;2.50;;;;;;;9.54;65.45;102834.28;4961962;28;20034;-74
2021/12/20 10:30:31;;;;;;;10.48;2.47;;;;;;;10.31;65.57;102826.53;4957417;28;20045;-74
2021/12/20 10:32:57;;;;;;;17.58;3.25;;;;;;;10.72;63.75;102828.31;4958826;28;20101;-74
2021/12/20 10:35:37;;;;;;;17.83;3.25;;;;;;;11.17;64.79;102832.44;4959113;28;20037;-74
2021/12/20 10:38:20;;;;;;;19.25;3.55;;;;;;;11.99;64.07;102823.00;4957618;28;20030;-74
2021/12/20 10:40:47;;;;;;;17.83;3.13;;;;;;;12.81;60.13;102820.44;4947636;28;20041;-74
2021/12/20 10:43:15;;;;;;;20.58;3.70;;;;;;;12.84;57.41;102828.34;4962501;28;20035;-74
2021/12/20 10:45:40;;;;;;;13.35;2.53;;;;;;;12.73;58.20;102811.88;4964457;28;20038;-74
2021/12/20 10:48:10;;;;;;;26.05;3.95;;;;;;;12.97;57.90;102825.84;4958207;28;20132;-75
2021/12/20 10:50:42;;;;;;;10.25;2.15;;;;;;;13.47;58.15;102828.44;4962237;28;20034;-75
2021/12/20 10:53:24;;;;;;;17.52;2.97;;;;;;;13.56;55.62;102829.72;4943615;28;20042;-74
2021/12/20 10:55:51;;;;;;;15.70;2.60;;;;;;;13.60;56.20;102832.13;4949557;28;20031;-75
2021/12/20 10:58:29;;;;;;;12.70;3.28;;;;;;;13.96;55.81;102827.31;4953697;28;20027;-74
2021/12/20 11:01:07;;;;;;;19.40;3.40;;;;;;;14.43;53.94;102821.78;4962103;28;20204;-74
2021/12/20 11:03:37;;;;;;;19.90;3.85;;;;;;;14.00;55.16;102822.63;4938034;28;20086;-75
2021/12/20 11:11:27;;;;;;;19.50;3.30;;;;;;;13.48;54.49;102814.84;4961340;28;20418;-74
2021/12/20 11:13:52;;;;;;;24.27;3.88;;;;;;;13.55;56.03;102809.09;4950518;28;20536;-75
2021/12/20 11:16:33;;;;;;;17.10;3.03;;;;;;;12.92;57.25;102814.44;4954670;28;20490;-73
2021/12/20 11:19:13;;;;;;;18.08;3.67;;;;;;;13.35;56.46;102795.75;4957390;28;20077;-74
2021/12/20 11:22:14;;;;;;;18.27;3.28;;;;;;;13.24;55.15;102808.13;4950924;28;20105;-73
2021/12/20 11:24:42;;;;;;;16.80;3.45;;;;;;;12.70;57.10;102810.25;4918654;28;20042;-74
2021/12/20 11:27:12;;;;;;;19.75;3.60;;;;;;;12.78;56.13;102800.84;4956367;28;20079;-73
2021/12/20 11:29:39;;;;;;;20.05;3.50;;;;;;;12.95;57.11;102806.16;4938269;28;20117;-74
2021/12/20 11:32:05;;;;;;;27.05;4.05;;;;;;;14.14;54.61;102803.72;4956131;28;20031;-75
2021/12/20 11:34:31;;;;;;;12.40;3.40;;;;;;;13.92;52.91;102809.56;4943090;28;20042;-74
2021/12/20 11:36:57;;;;;;;20.65;3.78;;;;;;;13.33;53.95;102813.88;4923134;28;20414;-75
2021/12/20 11:39:24;;;;;;;20.98;3.15;;;;;;;13.57;54.43;102818.81;4941156;28;20043;-74
2021/12/20 11:41:49;;;;;;;18.27;3.80;;;;;;;13.84;53.31;102804.63;4938533;28;20550;-73